Time;durP1;ratioP1;P1;durP2;ratioP2;P2;SDS_P1;SDS_P2;PMS_P1;PMS_P2;Temp;Humidity;BMP_temperature;BMP_pressure;BME280_temperature;BME280_humidity;BME280_pressure;Samples;Min_cycle;Max_cycle;Signal;HPM_P1;HPM_P2
2021/06/16 00:00:14;;;;;;;3.37;3.10;;;;;;;21.80;63.25;96370.16;5093653;28;20218;-67
2021/06/16 00:02:41;;;;;;;3.77;3.47;;;;;;;21.85;63.52;96370.09;5093445;28;20636;-65
2021/06/16 00:05:09;;;;;;;2.87;2.63;;;;;;;21.91;63.63;96374.22;5113663;28;20899;-67
2021/06/16 00:07:34;;;;;;;3.53;3.23;;;;;;;21.92;63.80;96373.16;5097441;28;20420;-67
2021/06/16 00:10:00;;;;;;;3.00;2.80;;;;;;;21.90;64.25;96367.31;5093550;28;20400;-67
2021/06/16 00:12:26;;;;;;;3.13;2.93;;;;;;;21.89;64.48;96358.47;5093041;28;20249;-67
2021/06/16 00:14:53;;;;;;;3.70;3.40;;;;;;;21.92;64.32;96357.88;5112045;28;20213;-66
2021/06/16 00:17:18;;;;;;;3.33;3.03;;;;;;;21.94;63.78;96361.06;5113350;28;20447;-66
2021/06/16 00:19:43;;;;;;;4.03;3.27;;;;;;;21.89;63.90;96361.16;5113691;28;20490;-66
2021/06/16 00:22:09;;;;;;;4.80;2.93;;;;;;;21.86;64.65;96364.44;5113292;28;20171;-66
2021/06/16 00:24:34;;;;;;;3.77;3.47;;;;;;;21.87;64.68;96360.66;5112782;28;20552;-66
2021/06/16 00:27:00;;;;;;;3.60;3.20;;;;;;;21.85;65.23;96351.34;5113438;28;20165;-67
2021/06/16 00:29:26;;;;;;;5.50;3.47;;;;;;;21.77;65.79;96363.50;5116281;28;20161;-67
2021/06/16 00:31:51;;;;;;;3.47;3.17;;;;;;;21.76;66.29;96350.44;5117461;28;20252;-67
2021/06/16 00:34:17;;;;;;;3.70;3.40;;;;;;;21.72;65.49;96358.25;5105152;28;20193;-67
2021/06/16 00:36:42;;;;;;;4.60;3.47;;;;;;;21.67;65.71;96352.19;5097132;28;20243;-66
2021/06/16 00:39:09;;;;;;;3.83;3.53;;;;;;;21.70;65.96;96348.94;5097173;28;20575;-65
2021/06/16 00:41:35;;;;;;;4.17;3.77;;;;;;;21.67;65.91;96350.28;5096794;28;20170;-66
2021/06/16 00:44:00;;;;;;;3.40;3.10;;;;;;;21.64;65.78;96356.25;5104760;28;20435;-66
2021/06/16 00:46:26;;;;;;;3.63;3.33;;;;;;;21.68;65.74;96353.78;5101470;28;20195;-66
2021/06/16 00:48:51;;;;;;;3.53;3.33;;;;;;;21.70;66.13;96348.94;5117330;27;20647;-67
2021/06/16 00:51:16;;;;;;;3.37;3.07;;;;;;;21.64;66.42;96358.13;5111843;28;20173;-67
2021/06/16 00:53:42;;;;;;;3.37;3.07;;;;;;;21.66;66.07;96358.63;5096230;28;20192;-66
2021/06/16 00:56:07;;;;;;;3.97;3.67;;;;;;;21.65;66.08;96352.47;5097827;28;20676;-65
2021/06/16 00:58:33;;;;;;;3.80;3.30;;;;;;;21.63;65.86;96354.69;5096950;28;20167;-67
2021/06/16 01:01:06;;;;;;;3.57;3.07;;;;;;;21.65;65.35;96355.16;5096793;28;20169;-66
2021/06/16 01:04:19;;;;;;;3.90;3.43;;;;;;;21.54;65.15;96353.78;5096335;28;20494;-66
2021/06/16 01:06:48;;;;;;;6.30;3.70;;;;;;;21.56;66.01;96345.44;5068303;28;20423;-66
2021/06/16 01:09:35;;;;;;;4.00;3.47;;;;;;;21.58;66.28;96352.06;5054324;28;20402;-67
2021/06/16 01:12:26;;;;;;;4.03;3.73;;;;;;;21.61;67.08;96356.06;5054038;28;20463;-66
2021/06/16 01:14:53;;;;;;;4.40;4.00;;;;;;;21.60;67.28;96355.25;5061309;28;20448;-66
2021/06/16 01:17:28;;;;;;;3.60;3.30;;;;;;;21.60;67.13;96349.09;5073791;28;20453;-66
2021/06/16 01:19:59;;;;;;;3.90;3.60;;;;;;;21.60;67.09;96351.78;5074132;28;20412;-67
2021/06/16 01:22:47;;;;;;;4.00;3.43;;;;;;;21.57;66.30;96355.03;5073577;28;20409;-67
2021/06/16 01:25:27;;;;;;;3.73;3.33;;;;;;;21.60;65.68;96351.78;5073342;28;20478;-66
2021/06/16 01:27:53;;;;;;;3.73;3.43;;;;;;;21.62;65.12;96353.06;5074064;28;20436;-67
2021/06/16 01:30:19;;;;;;;3.50;3.20;;;;;;;21.63;64.76;96353.88;5073717;28;20462;-67
2021/06/16 01:32:46;;;;;;;4.23;3.93;;;;;;;21.66;64.45;96348.72;5073441;28;20409;-67
2021/06/16 01:35:13;;;;;;;3.83;3.57;;;;;;;21.68;63.52;96351.91;5065861;28;20175;-67
2021/06/16 01:37:39;;;;;;;3.60;3.40;;;;;;;21.72;63.32;96355.59;5080541;28;20517;-65
2021/06/16 01:40:06;;;;;;;5.00;3.90;;;;;;;21.76;63.73;96353.88;5094989;28;20397;-67
2021/06/16 01:42:32;;;;;;;3.73;3.43;;;;;;;21.81;63.98;96353.03;5095614;28;20392;-66
2021/06/16 01:44:59;;;;;;;4.40;4.10;;;;;;;21.76;65.07;96348.53;5098181;28;20497;-67
2021/06/16 01:47:25;;;;;;;4.27;3.90;;;;;;;21.78;65.14;96349.03;5111815;28;20453;-66
2021/06/16 01:49:56;;;;;;;4.60;4.10;;;;;;;21.80;65.21;96349.56;5096787;28;20760;-67
2021/06/16 01:52:25;;;;;;;4.47;4.07;;;;;;;21.75;65.90;96343.47;5095419;28;20552;-67
2021/06/16 01:54:51;;;;;;;4.63;4.33;;;;;;;21.72;66.18;96347.56;5098355;28;20956;-65
2021/06/16 01:57:17;;;;;;;4.80;4.40;;;;;;;21.71;66.71;96348.63;5116028;28;20451;-66
2021/06/16 01:59:45;;;;;;;4.70;4.30;;;;;;;21.73;66.82;96346.44;5116356;28;20403;-65
2021/06/16 02:02:11;;;;;;;4.40;4.00;;;;;;;21.75;67.07;96340.81;5115736;27;20399;-67
2021/06/16 02:04:37;;;;;;;4.73;4.33;;;;;;;21.72;66.62;96341.41;5115243;28;20778;-66
2021/06/16 02:07:13;;;;;;;5.20;4.80;;;;;;;21.71;66.76;96343.28;5095825;28;20170;-65
2021/06/16 02:09:39;;;;;;;4.80;3.80;;;;;;;21.66;66.91;96338.03;5095803;28;20435;-67
2021/06/16 02:12:10;;;;;;;5.20;4.60;;;;;;;21.65;67.06;96333.75;5093835;28;20860;-67
2021/06/16 02:14:36;;;;;;;6.23;4.77;;;;;;;21.62;67.40;96329.00;5095426;28;20474;-66
2021/06/16 02:17:07;;;;;;;5.00;4.60;;;;;;;21.54;68.85;96328.91;5115584;28;20866;-67
2021/06/16 02:19:34;;;;;;;7.03;4.70;;;;;;;21.52;68.27;96327.28;5116117;28;20555;-65
2021/06/16 02:22:01;;;;;;;4.30;4.00;;;;;;;21.51;68.65;96324.91;5115298;28;20478;-66
2021/06/16 02:24:27;;;;;;;8.03;5.20;;;;;;;21.48;68.79;96320.19;5115730;28;20453;-65
2021/06/16 02:26:53;;;;;;;5.33;4.40;;;;;;;21.50;68.90;96318.78;5114960;28;20567;-65
2021/06/16 02:29:20;;;;;;;5.27;4.87;;;;;;;21.46;69.28;96317.00;5115593;28;20177;-65
2021/06/16 02:31:46;;;;;;;5.00;4.60;;;;;;;21.46;69.77;96317.00;5115447;28;20811;-65
2021/06/16 02:34:11;;;;;;;4.60;4.23;;;;;;;21.41;69.09;96320.53;5115565;28;20423;-65
2021/06/16 02:36:44;;;;;;;4.80;4.50;;;;;;;21.41;69.39;96306.41;5099248;27;20202;-65
2021/06/16 02:39:24;;;;;;;4.83;4.40;;;;;;;21.40;69.36;96307.47;5095693;28;20162;-67
2021/06/16 02:41:50;;;;;;;4.77;4.33;;;;;;;21.37;69.53;96310.75;5094763;28;20460;-67
2021/06/16 02:44:17;;;;;;;4.97;4.47;;;;;;;21.33;70.00;96309.75;5094810;28;20416;-66
2021/06/16 02:46:47;;;;;;;4.97;4.57;;;;;;;21.33;69.88;96312.41;5103953;28;20521;-66
2021/06/16 02:49:14;;;;;;;5.17;4.67;;;;;;;21.30;69.93;96321.03;5106637;28;20479;-67
2021/06/16 02:51:40;;;;;;;5.30;4.90;;;;;;;21.29;69.97;96316.75;5115184;28;20493;-66
2021/06/16 02:54:11;;;;;;;5.40;4.90;;;;;;;21.30;69.80;96313.81;5114878;28;20490;-66
2021/06/16 02:56:39;;;;;;;4.70;4.20;;;;;;;21.30;69.84;96315.69;5099420;28;20459;-67
2021/06/16 02:59:05;;;;;;;3.83;3.63;;;;;;;21.24;70.08;96314.97;5094628;28;20829;-66
2021/06/16 03:01:32;;;;;;;5.03;4.53;;;;;;;21.23;70.05;96315.28;5105161;28;20503;-67
2021/06/16 03:03:58;;;;;;;5.23;4.60;;;;;;;21.21;69.76;96304.88;5113508;28;20517;-67
2021/06/16 03:06:25;;;;;;;5.07;4.60;;;;;;;21.17;69.72;96314.56;5101385;28;20895;-66
2021/06/16 03:08:54;;;;;;;4.70;4.40;;;;;;;21.16;70.11;96312.19;5094382;28;20404;-66
2021/06/16 03:11:20;;;;;;;5.10;4.70;;;;;;;21.03;71.26;96318.28;5094486;28;20509;-66
2021/06/16 03:13:46;;;;;;;5.73;4.70;;;;;;;20.99;71.58;96311.91;5094010;28;20420;-66
2021/06/16 03:16:14;;;;;;;4.40;4.10;;;;;;;21.00;71.75;96308.97;5105566;28;20446;-66
2021/06/16 03:18:40;;;;;;;5.83;5.40;;;;;;;21.04;71.74;96311.84;5114512;28;20409;-66
2021/06/16 03:21:06;;;;;;;5.57;5.10;;;;;;;21.04;71.61;96309.97;5114536;28;20399;-65
2021/06/16 03:23:32;;;;;;;5.83;5.03;;;;;;;20.98;71.89;96310.34;5114118;28;20419;-66
2021/06/16 03:25:58;;;;;;;4.83;4.43;;;;;;;20.96;71.74;96312.50;5113943;28;20196;-67
2021/06/16 03:28:26;;;;;;;4.70;4.30;;;;;;;20.94;71.77;96309.31;5113267;28;20921;-67
2021/06/16 03:30:55;;;;;;;5.70;5.00;;;;;;;20.94;71.55;96309.31;5113307;28;20857;-66
2021/06/16 03:33:21;;;;;;;5.77;5.27;;;;;;;20.97;70.81;96314.88;5113891;28;20427;-68
2021/06/16 03:35:47;;;;;;;5.10;4.73;;;;;;;20.98;70.80;96316.44;5106672;28;20922;-67
2021/06/16 03:38:13;;;;;;;6.60;4.70;;;;;;;20.91;71.54;96307.22;5105146;28;20472;-67
2021/06/16 03:40:38;;;;;;;5.47;4.60;;;;;;;20.90;71.93;96308.31;5114485;28;20196;-69
2021/06/16 03:43:05;;;;;;;6.27;5.77;;;;;;;20.92;72.48;96308.81;5112537;28;20444;-67
2021/06/16 03:45:31;;;;;;;5.17;4.73;;;;;;;20.92;72.25;96306.94;5109257;28;20181;-66
2021/06/16 03:48:00;;;;;;;5.50;5.00;;;;;;;20.94;72.75;96306.66;5093848;28;20412;-67
2021/06/16 03:50:27;;;;;;;5.30;4.80;;;;;;;20.96;72.54;96309.84;5093807;28;20491;-68
2021/06/16 03:52:55;;;;;;;5.30;4.90;;;;;;;20.98;72.36;96310.34;5093391;28;20404;-67
2021/06/16 03:55:22;;;;;;;5.60;5.10;;;;;;;20.97;72.30;96308.72;5095490;28;20490;-66
2021/06/16 03:57:48;;;;;;;5.07;4.57;;;;;;;20.92;72.89;96306.94;5106536;28;20464;-66
2021/06/16 04:00:14;;;;;;;5.07;4.60;;;;;;;20.92;73.04;96311.50;5111333;28;20479;-67
2021/06/16 04:02:40;;;;;;;5.43;4.97;;;;;;;20.95;73.11;96313.56;5113362;28;20410;-67
2021/06/16 04:05:08;;;;;;;5.77;5.30;;;;;;;20.95;73.42;96309.03;5113384;28;20430;-66
2021/06/16 04:07:35;;;;;;;9.13;5.47;;;;;;;20.96;73.45;96309.84;5098093;28;20411;-68
2021/06/16 04:10:01;;;;;;;5.13;4.73;;;;;;;20.95;73.36;96308.22;5100751;28;20423;-67
2021/06/16 04:12:28;;;;;;;4.97;4.57;;;;;;;20.97;73.49;96306.88;5093191;28;20412;-67
2021/06/16 04:14:53;;;;;;;5.10;4.70;;;;;;;20.99;73.80;96306.56;5113315;28;20422;-67
2021/06/16 04:17:21;;;;;;;6.60;4.50;;;;;;;21.01;74.52;96312.44;5094908;28;20466;-67
2021/06/16 04:19:47;;;;;;;5.70;5.30;;;;;;;21.00;74.74;96306.31;5093763;28;20180;-67
2021/06/16 04:22:14;;;;;;;5.73;5.23;;;;;;;21.05;74.67;96305.44;5093102;28;20404;-66
2021/06/16 04:24:40;;;;;;;4.87;4.47;;;;;;;21.11;74.72;96305.03;5093530;28;20506;-68
2021/06/16 04:27:06;;;;;;;7.23;5.20;;;;;;;21.17;74.43;96309.22;5099368;28;20503;-66
2021/06/16 04:29:32;;;;;;;5.17;4.70;;;;;;;21.20;74.32;96308.63;5093317;28;20173;-67
2021/06/16 04:31:57;;;;;;;5.70;5.03;;;;;;;21.23;74.06;96304.59;5092936;28;20412;-68
2021/06/16 04:34:23;;;;;;;6.23;5.63;;;;;;;21.24;74.36;96306.16;5091987;28;20764;-67
2021/06/16 04:36:49;;;;;;;6.80;5.70;;;;;;;21.28;74.33;96304.50;5106746;28;20229;-69
2021/06/16 04:39:15;;;;;;;5.60;5.10;;;;;;;21.34;74.22;96301.41;5113676;28;20219;-67
2021/06/16 04:41:40;;;;;;;5.83;5.43;;;;;;;21.36;74.89;96306.50;5113448;28;20170;-67
2021/06/16 04:44:06;;;;;;;7.37;5.53;;;;;;;21.38;75.02;96298.94;5113443;28;20761;-67
2021/06/16 04:46:31;;;;;;;7.20;6.60;;;;;;;21.44;74.90;96297.78;5101164;28;20193;-68
2021/06/16 04:48:56;;;;;;;6.73;6.13;;;;;;;21.38;71.94;96294.41;5091933;28;20162;-67
2021/06/16 04:51:22;;;;;;;7.13;6.47;;;;;;;21.47;72.25;96299.84;5093381;28;20175;-67
2021/06/16 04:53:47;;;;;;;6.90;6.20;;;;;;;21.60;72.31;96292.94;5092737;28;20592;-67
2021/06/16 04:56:13;;;;;;;6.00;5.40;;;;;;;21.70;72.58;96298.91;5100747;28;20676;-67
2021/06/16 04:58:38;;;;;;;6.60;5.17;;;;;;;21.77;72.29;96293.13;5093484;28;20600;-66
2021/06/16 05:01:04;;;;;;;5.73;5.23;;;;;;;21.82;71.27;96293.88;5113455;28;20161;-67
2021/06/16 05:03:29;;;;;;;5.73;5.23;;;;;;;21.87;69.52;96296.44;5112824;28;20193;-67
2021/06/16 05:05:55;;;;;;;5.10;4.70;;;;;;;21.89;68.15;96288.91;5112625;28;20498;-67
2021/06/16 05:08:20;;;;;;;5.20;4.70;;;;;;;21.91;66.17;96292.06;5095119;28;20193;-66
2021/06/16 05:10:45;;;;;;;4.40;4.00;;;;;;;22.02;64.99;96298.00;5092865;28;20177;-66
2021/06/16 05:13:11;;;;;;;4.13;3.83;;;;;;;22.07;65.85;96289.88;5092467;28;20190;-67
2021/06/16 05:15:36;;;;;;;5.30;4.80;;;;;;;22.16;66.97;96288.88;5095719;28;20523;-67
2021/06/16 05:18:04;;;;;;;4.50;4.10;;;;;;;22.22;67.18;96289.56;5116722;28;20200;-67
2021/06/16 05:20:29;;;;;;;4.67;4.37;;;;;;;22.31;67.79;96283.19;5117018;28;20248;-66
2021/06/16 05:22:57;;;;;;;4.83;4.33;;;;;;;22.36;67.40;96279.59;5116306;28;20493;-67
2021/06/16 05:25:23;;;;;;;5.13;4.10;;;;;;;22.40;67.23;96276.03;5116467;28;20566;-66
2021/06/16 05:27:49;;;;;;;4.43;4.13;;;;;;;22.48;66.60;96282.56;5096185;28;20396;-67
2021/06/16 05:30:16;;;;;;;5.47;4.50;;;;;;;22.57;66.63;96277.28;5096534;28;20170;-67
2021/06/16 05:32:41;;;;;;;4.70;4.30;;;;;;;22.63;66.74;96278.75;5095850;28;20253;-67
2021/06/16 05:35:09;;;;;;;6.17;4.00;;;;;;;22.68;65.97;96286.66;5096105;28;20495;-66
2021/06/16 05:37:34;;;;;;;4.53;4.13;;;;;;;22.72;66.07;96287.66;5112808;28;20196;-66
2021/06/16 05:40:00;;;;;;;4.23;3.80;;;;;;;22.70;63.23;96281.81;5115368;28;20408;-66
2021/06/16 05:42:25;;;;;;;4.30;3.90;;;;;;;22.71;61.33;96283.38;5115989;28;20161;-67
2021/06/16 05:44:50;;;;;;;3.40;3.10;;;;;;;22.82;61.36;96280.16;5116355;28;20193;-67
2021/06/16 05:47:16;;;;;;;4.50;4.20;;;;;;;22.86;61.71;96285.69;5100133;28;20345;-67
2021/06/16 05:49:41;;;;;;;4.50;3.40;;;;;;;22.83;58.83;96281.72;5095911;28;20170;-67
2021/06/16 05:52:07;;;;;;;3.73;3.43;;;;;;;22.94;59.72;96287.63;5095561;28;20632;-66
2021/06/16 05:54:36;;;;;;;4.00;3.70;;;;;;;22.96;57.75;96286.25;5095615;28;20682;-68
2021/06/16 05:57:01;;;;;;;4.33;3.93;;;;;;;23.09;59.60;96287.25;5107942;28;20553;-67
2021/06/16 05:59:26;;;;;;;4.10;3.63;;;;;;;23.14;59.86;96287.13;5116070;28;20407;-66
2021/06/16 06:01:52;;;;;;;3.87;3.50;;;;;;;23.23;58.63;96282.59;5115994;28;20177;-67
2021/06/16 06:04:17;;;;;;;3.70;3.47;;;;;;;23.29;60.48;96284.09;5116115;28;20712;-67
2021/06/16 06:06:42;;;;;;;4.30;3.70;;;;;;;23.36;60.78;96279.06;5111820;28;20192;-67
2021/06/16 06:09:08;;;;;;;4.43;3.50;;;;;;;23.29;59.42;96278.72;5097854;28;20219;-66
2021/06/16 06:11:36;;;;;;;4.10;3.70;;;;;;;23.28;57.35;96271.78;5115458;28;20162;-67
2021/06/16 06:14:02;;;;;;;4.67;3.03;;;;;;;23.29;55.91;96278.72;5115803;28;20760;-67
2021/06/16 06:16:28;;;;;;;4.43;3.40;;;;;;;23.39;56.20;96276.56;5108100;28;20459;-66
2021/06/16 06:18:53;;;;;;;3.70;3.40;;;;;;;23.50;58.85;96287.81;5095437;28;20427;-66
2021/06/16 06:21:18;;;;;;;3.80;3.57;;;;;;;23.57;59.85;96290.84;5095422;28;20166;-66
2021/06/16 06:23:44;;;;;;;3.40;3.10;;;;;;;23.56;60.83;96289.28;5094993;28;20660;-67
2021/06/16 06:26:10;;;;;;;4.53;3.13;;;;;;;23.61;60.52;96286.44;5099260;28;20647;-66
2021/06/16 06:28:36;;;;;;;3.60;3.30;;;;;;;23.59;57.99;96285.97;5115498;28;20432;-67
2021/06/16 06:31:03;;;;;;;3.33;3.03;;;;;;;23.58;54.38;96291.63;5103881;28;20177;-66
2021/06/16 06:33:28;;;;;;;4.43;2.73;;;;;;;23.64;55.43;96288.53;5094664;28;20193;-66
2021/06/16 06:35:53;;;;;;;4.97;3.63;;;;;;;23.73;55.70;96291.25;5095807;28;20400;-65
2021/06/16 06:38:19;;;;;;;6.87;3.20;;;;;;;23.80;54.11;96295.06;5115391;28;20164;-65
2021/06/16 06:40:44;;;;;;;4.07;3.40;;;;;;;23.65;53.15;96295.47;5115467;28;20166;-65
2021/06/16 06:43:09;;;;;;;6.17;4.00;;;;;;;23.83;52.17;96294.44;5114869;28;20652;-66
2021/06/16 06:45:35;;;;;;;3.57;3.27;;;;;;;23.97;53.75;96286.28;5115142;28;20166;-64
2021/06/16 06:48:00;;;;;;;4.00;3.40;;;;;;;23.98;53.46;96285.94;5094848;28;20632;-64
2021/06/16 06:50:29;;;;;;;3.60;3.30;;;;;;;24.05;55.78;96277.47;5094756;28;20162;-66
2021/06/16 06:52:55;;;;;;;5.60;3.27;;;;;;;24.15;54.77;96277.94;5094282;28;20249;-66
2021/06/16 06:55:20;;;;;;;5.87;3.17;;;;;;;24.26;56.46;96281.91;5094509;28;20852;-66
2021/06/16 06:57:46;;;;;;;3.93;3.53;;;;;;;24.35;56.97;96277.34;5110403;28;20679;-65
2021/06/16 07:00:13;;;;;;;3.33;3.03;;;;;;;24.24;53.82;96276.06;5114924;28;20172;-65
2021/06/16 07:02:42;;;;;;;6.53;4.00;;;;;;;23.96;52.48;96269.34;5114576;28;20177;-66
2021/06/16 07:05:08;;;;;;;3.80;3.33;;;;;;;24.15;51.05;96269.88;5115030;28;20439;-65
2021/06/16 07:07:34;;;;;;;2.50;2.40;;;;;;;24.33;50.32;96271.50;5106756;28;20442;-66
2021/06/16 07:09:59;;;;;;;3.90;3.60;;;;;;;24.46;50.09;96273.25;5106670;28;20182;-64
2021/06/16 07:12:24;;;;;;;4.83;3.47;;;;;;;24.46;50.28;96273.25;5094039;28;20215;-65
2021/06/16 07:14:52;;;;;;;4.00;2.73;;;;;;;24.48;49.89;96272.16;5094202;28;20576;-65
2021/06/16 07:17:18;;;;;;;3.30;3.10;;;;;;;24.44;51.02;96269.31;5103601;28;20204;-66
2021/06/16 07:19:43;;;;;;;7.33;3.60;;;;;;;24.31;52.66;96270.25;5114726;28;20764;-69
2021/06/16 07:22:09;;;;;;;3.50;3.20;;;;;;;24.64;53.24;96278.63;5114358;28;20631;-67
2021/06/16 07:24:34;;;;;;;3.53;3.23;;;;;;;24.89;55.35;96284.03;5114424;28;20190;-65
2021/06/16 07:26:59;;;;;;;4.93;3.50;;;;;;;24.99;55.72;96277.50;5106028;28;20659;-66
2021/06/16 07:29:25;;;;;;;3.93;3.57;;;;;;;25.08;55.93;96275.59;5097151;28;20170;-68
2021/06/16 07:31:51;;;;;;;3.17;2.97;;;;;;;25.12;53.52;96271.97;5114081;28;20166;-66
2021/06/16 07:34:17;;;;;;;5.40;3.63;;;;;;;25.05;50.27;96260.09;5106061;28;20193;-65
2021/06/16 07:36:42;;;;;;;3.70;3.30;;;;;;;25.12;50.23;96263.09;5093834;28;20449;-67
2021/06/16 07:39:07;;;;;;;5.13;3.27;;;;;;;25.11;49.69;96267.66;5092095;28;20162;-66
2021/06/16 07:41:34;;;;;;;5.23;3.10;;;;;;;25.26;49.59;96269.06;5093489;28;20204;-65
2021/06/16 07:43:59;;;;;;;7.50;3.47;;;;;;;25.22;49.81;96268.91;5109700;28;20208;-65
2021/06/16 07:46:25;;;;;;;6.70;3.77;;;;;;;25.33;50.00;96266.66;5094043;28;20420;-65
2021/06/16 07:48:50;;;;;;;6.70;3.53;;;;;;;25.50;49.94;96261.25;5093727;28;20166;-66
2021/06/16 07:51:17;;;;;;;3.30;3.00;;;;;;;25.62;49.06;96269.44;5092382;28;20166;-66
2021/06/16 07:53:43;;;;;;;3.63;3.20;;;;;;;25.69;50.14;96263.56;5106892;28;20201;-66
2021/06/16 07:56:08;;;;;;;7.27;3.60;;;;;;;25.81;50.60;96258.28;5113898;28;20414;-66
2021/06/16 07:58:34;;;;;;;6.30;3.43;;;;;;;25.92;48.72;96262.16;5113713;28;20665;-65
2021/06/16 08:01:00;;;;;;;3.23;2.90;;;;;;;25.96;48.72;96263.09;5112863;28;20246;-65
2021/06/16 08:03:26;;;;;;;2.90;2.70;;;;;;;26.08;48.86;96261.31;5105456;28;20283;-65
2021/06/16 08:05:52;;;;;;;3.47;3.17;;;;;;;26.19;47.96;96264.41;5090033;28;20177;-66
2021/06/16 08:08:17;;;;;;;3.50;3.20;;;;;;;26.21;47.83;96260.28;5108050;28;20781;-66
2021/06/16 08:10:43;;;;;;;4.00;3.60;;;;;;;26.30;47.49;96265.59;5110395;28;20546;-66
2021/06/16 08:13:09;;;;;;;3.07;2.87;;;;;;;26.17;47.13;96255.88;5101671;28;20742;-64
2021/06/16 08:15:35;;;;;;;5.73;3.90;;;;;;;26.34;46.42;96259.22;5108771;28;20254;-65
2021/06/16 08:18:01;;;;;;;4.73;3.37;;;;;;;26.43;48.62;96259.94;5090057;28;20782;-64
2021/06/16 08:20:27;;;;;;;3.00;2.80;;;;;;;26.51;47.04;96252.91;5104518;28;20422;-66
2021/06/16 08:22:52;;;;;;;3.67;2.97;;;;;;;26.48;45.90;96255.47;5109097;28;20778;-66
2021/06/16 08:25:18;;;;;;;3.83;2.80;;;;;;;26.55;46.08;96253.84;5109719;28;20886;-65
2021/06/16 08:27:43;;;;;;;3.37;3.00;;;;;;;26.70;47.37;96255.97;5110403;28;20643;-65
2021/06/16 08:30:11;;;;;;;3.43;3.23;;;;;;;26.60;44.58;96252.88;5113909;28;20232;-65
2021/06/16 08:32:36;;;;;;;3.13;2.93;;;;;;;26.64;44.47;96251.84;5112291;28;20717;-65
2021/06/16 08:35:03;;;;;;;3.37;3.13;;;;;;;26.41;43.66;96250.63;5093187;28;20469;-66
2021/06/16 08:37:28;;;;;;;3.93;3.03;;;;;;;26.61;45.01;96244.44;5093324;28;20198;-65
2021/06/16 08:39:54;;;;;;;3.10;2.90;;;;;;;26.52;46.52;96248.31;5101676;28;20845;-64
2021/06/16 08:42:19;;;;;;;4.00;2.97;;;;;;;26.77;46.43;96244.63;5111266;28;20699;-65
2021/06/16 08:44:45;;;;;;;5.83;3.13;;;;;;;26.95;45.01;96246.03;5113405;28;20186;-67
2021/06/16 08:47:10;;;;;;;3.60;3.40;;;;;;;26.85;45.18;96249.19;5113657;28;20164;-65
2021/06/16 08:49:36;;;;;;;6.53;3.80;;;;;;;27.00;46.06;96243.94;5095766;28;20170;-62
2021/06/16 08:52:03;;;;;;;3.77;3.50;;;;;;;27.12;47.68;96249.34;5108197;28;20608;-62
2021/06/16 08:54:29;;;;;;;3.50;3.20;;;;;;;27.25;45.99;96252.88;5116735;27;20197;-65
2021/06/16 08:56:55;;;;;;;3.20;3.00;;;;;;;27.37;46.16;96242.94;5106994;28;20534;-69
2021/06/16 08:59:20;;;;;;;3.50;3.10;;;;;;;27.48;45.26;96245.19;5097008;28;20491;-68
2021/06/16 09:01:46;;;;;;;6.20;3.40;;;;;;;27.44;44.08;96242.38;5105035;28;20174;-65
2021/06/16 09:04:11;;;;;;;4.10;3.37;;;;;;;27.46;43.69;96248.22;5113130;28;20277;-62
2021/06/16 09:06:36;;;;;;;3.87;3.47;;;;;;;27.56;43.87;96252.41;5109046;28;20646;-63
2021/06/16 09:09:03;;;;;;;3.73;3.30;;;;;;;27.49;44.86;96247.53;5103112;28;20652;-61
2021/06/16 09:11:46;;;;;;;4.73;3.57;;;;;;;27.67;43.94;96242.72;5107053;28;20174;-61
2021/06/16 09:14:18;;;;;;;3.80;3.50;;;;;;;27.88;45.08;96240.69;5107633;28;20435;-68
2021/06/16 09:16:44;;;;;;;3.70;3.40;;;;;;;28.05;44.15;96241.28;5104523;28;20504;-65
2021/06/16 09:19:30;;;;;;;3.20;2.90;;;;;;;28.24;44.98;96237.97;5104871;28;20466;-67
2021/06/16 09:22:04;;;;;;;3.47;3.17;;;;;;;28.37;45.96;96236.81;5101844;28;20421;-65
2021/06/16 09:24:54;;;;;;;3.10;2.90;;;;;;;28.35;45.83;96244.50;5101968;28;20791;-65
2021/06/16 09:27:44;;;;;;;4.43;4.03;;;;;;;28.38;45.84;96249.22;5113000;28;20496;-67
2021/06/16 09:30:18;;;;;;;11.83;5.50;;;;;;;28.47;44.22;96244.44;5116683;28;20388;-68
2021/06/16 09:32:45;;;;;;;4.63;4.23;;;;;;;28.58;44.15;96236.66;5107404;28;20411;-65
2021/06/16 09:35:32;;;;;;;5.90;4.30;;;;;;;28.68;44.42;96242.38;5096226;28;20400;-67
2021/06/16 09:38:01;;;;;;;4.00;3.60;;;;;;;28.79;44.08;96240.00;5101986;28;20484;-64
2021/06/16 09:40:43;;;;;;;5.10;3.67;;;;;;;28.78;41.88;96235.69;5116395;28;20403;-65
2021/06/16 09:43:14;;;;;;;3.60;3.30;;;;;;;28.94;42.33;96236.50;5115360;28;20435;-65
2021/06/16 09:45:42;;;;;;;3.10;2.90;;;;;;;29.09;44.31;96235.78;5113930;28;20409;-68
2021/06/16 09:48:34;;;;;;;3.80;3.50;;;;;;;29.28;43.51;96231.28;5109331;28;21003;-62
2021/06/16 09:51:23;;;;;;;3.50;3.30;;;;;;;29.40;44.21;96243.97;5106731;28;20431;-66
2021/06/16 09:54:13;;;;;;;3.70;3.40;;;;;;;29.48;42.55;96236.81;5099986;28;20463;-65
2021/06/16 09:56:42;;;;;;;3.57;3.27;;;;;;;29.47;42.02;96243.34;5100046;28;20464;-64
2021/06/16 09:59:08;;;;;;;2.90;2.70;;;;;;;29.58;42.32;96241.69;5099992;28;20420;-63
2021/06/16 10:01:55;;;;;;;3.47;3.17;;;;;;;29.64;41.90;96232.94;5101574;28;20468;-65
2021/06/16 10:04:39;;;;;;;3.87;3.57;;;;;;;29.74;42.62;96231.66;5103951;28;20185;-66
2021/06/16 10:07:18;;;;;;;3.60;3.30;;;;;;;29.69;40.72;96231.94;5103171;28;20411;-68
2021/06/16 10:09:48;;;;;;;3.20;3.00;;;;;;;29.83;39.54;96235.75;5109930;28;20955;-69
2021/06/16 10:12:15;;;;;;;4.00;3.20;;;;;;;29.98;38.73;96237.69;5112096;28;20419;-65
2021/06/16 10:14:41;;;;;;;3.70;2.93;;;;;;;30.07;39.97;96232.84;5112304;28;20447;-63
2021/06/16 10:17:07;;;;;;;3.13;2.90;;;;;;;30.12;39.68;96229.84;5111744;28;20466;-65
2021/06/16 10:19:35;;;;;;;3.70;3.40;;;;;;;30.26;39.58;96227.47;5112214;28;20489;-66
2021/06/16 10:22:02;;;;;;;3.47;3.17;;;;;;;30.38;40.36;96213.00;5110064;28;20415;-63
2021/06/16 10:24:27;;;;;;;3.90;3.60;;;;;;;30.50;39.38;96209.34;5112063;28;20430;-68
2021/06/16 10:26:56;;;;;;;3.20;2.90;;;;;;;30.41;35.63;96215.00;5102971;28;20678;-63
2021/06/16 10:29:27;;;;;;;3.10;2.80;;;;;;;30.59;37.97;96212.63;5097022;28;20173;-62
2021/06/16 10:31:53;;;;;;;4.03;3.57;;;;;;;30.64;37.24;96220.53;5111729;28;20468;-67
2021/06/16 10:34:19;;;;;;;3.17;2.90;;;;;;;30.81;38.13;96215.47;5111624;28;20427;-66
2021/06/16 10:37:29;;;;;;;4.03;3.57;;;;;;;30.64;37.57;96218.56;5102977;28;20538;-66
2021/06/16 10:40:18;;;;;;;3.53;3.23;;;;;;;30.85;37.72;96212.81;5071791;28;20415;-65
2021/06/16 10:42:59;;;;;;;4.73;3.60;;;;;;;30.97;38.30;96209.94;5085295;28;20473;-70
2021/06/16 10:45:28;;;;;;;3.40;3.20;;;;;;;31.12;38.73;96207.13;5090885;28;20447;-65
2021/06/16 10:47:58;;;;;;;3.33;3.07;;;;;;;31.23;39.06;96201.88;5109228;28;20502;-67
2021/06/16 10:50:46;;;;;;;3.57;3.30;;;;;;;31.36;39.03;96206.03;5111655;28;20410;-66
2021/06/16 10:53:13;;;;;;;3.63;3.33;;;;;;;31.25;35.10;96200.34;5111165;28;20464;-68
2021/06/16 10:55:53;;;;;;;3.50;3.30;;;;;;;31.40;37.37;96201.41;5111489;28;20923;-66
2021/06/16 10:58:41;;;;;;;4.00;3.43;;;;;;;31.39;38.73;96204.50;5090668;28;20521;-66
2021/06/16 11:01:17;;;;;;;4.00;3.33;;;;;;;31.42;38.25;96201.84;5091043;28;20400;-68
2021/06/16 11:03:52;;;;;;;4.40;3.50;;;;;;;31.49;38.08;96196.50;5090686;28;20419;-66
2021/06/16 11:06:32;;;;;;;3.80;3.50;;;;;;;31.56;37.91;96183.06;5110182;28;20911;-66
2021/06/16 11:08:58;;;;;;;4.93;3.47;;;;;;;31.55;38.29;96192.34;5110891;28;20938;-65
2021/06/16 11:11:47;;;;;;;4.10;3.30;;;;;;;31.60;37.90;96194.75;5111218;28;21168;-67
2021/06/16 11:14:49;;;;;;;6.00;3.47;;;;;;;31.57;37.07;96192.78;5110108;28;20472;-67
2021/06/16 11:17:29;;;;;;;6.53;3.60;;;;;;;31.56;37.70;96185.78;5002318;28;20507;-64
2021/06/16 11:19:58;;;;;;;3.50;3.17;;;;;;;31.63;37.81;96185.09;5091095;28;20430;-69
2021/06/16 11:22:27;;;;;;;4.03;3.47;;;;;;;31.71;37.13;96184.03;5110324;28;20826;-65
2021/06/16 11:25:13;;;;;;;3.53;3.27;;;;;;;31.81;37.47;96186.94;5111003;28;20437;-68
2021/06/16 11:27:53;;;;;;;3.80;3.50;;;;;;;31.87;38.73;96185.47;5105434;28;20519;-68
2021/06/16 11:30:33;;;;;;;3.40;3.20;;;;;;;31.90;38.97;96179.34;5099749;28;20487;-66
2021/06/16 11:33:21;;;;;;;3.53;3.33;;;;;;;31.98;36.39;96178.28;5109992;28;20403;-68
2021/06/16 11:35:50;;;;;;;3.27;3.07;;;;;;;32.03;36.57;96171.75;5096291;28;20835;-67
2021/06/16 11:38:18;;;;;;;3.63;3.40;;;;;;;32.14;36.93;96172.69;5093223;28;20451;-67
2021/06/16 11:40:55;;;;;;;6.43;3.37;;;;;;;32.04;38.01;96163.22;5090414;28;20438;-67